createdAt,value
2019-06-01T00:01:55.533Z,82.29
2019-06-01T00:04:22.080Z,82.62
2019-06-01T00:06:49.047Z,82.85
2019-06-01T00:09:15.640Z,83.28
2019-06-01T00:11:45.649Z,83.51
2019-06-01T00:14:12.350Z,83.88
2019-06-01T00:16:39.919Z,84.34
2019-06-01T00:19:06.772Z,84.38
2019-06-01T00:21:34.341Z,84.48
2019-06-01T00:24:01.479Z,84.80
2019-06-01T00:26:27.974Z,85.01
2019-06-01T00:28:54.512Z,85.17
2019-06-01T00:31:21.016Z,85.65
2019-06-01T00:33:47.665Z,85.76
2019-06-01T00:36:14.159Z,85.66
2019-06-01T00:38:41.611Z,85.82
2019-06-01T00:41:08.323Z,86.01
2019-06-01T00:43:34.929Z,86.21
2019-06-01T00:46:01.422Z,86.37
2019-06-01T00:48:27.944Z,86.51
2019-06-01T00:50:54.792Z,86.72
2019-06-01T00:53:21.335Z,86.73
2019-06-01T00:55:47.968Z,86.77
2019-06-01T00:58:15.638Z,86.70
2019-06-01T01:00:45.201Z,86.55
2019-06-01T01:03:10.549Z,86.48
2019-06-01T01:05:37.102Z,86.30
2019-06-01T01:08:03.739Z,86.39
2019-06-01T01:10:30.315Z,86.11
2019-06-01T01:13:05.257Z,85.69
2019-06-01T01:15:31.935Z,85.70
2019-06-01T01:17:58.504Z,85.58
2019-06-01T01:20:25.132Z,85.54
2019-06-01T01:22:52.266Z,85.59
2019-06-01T01:25:19.021Z,85.70
2019-06-01T01:27:46.564Z,85.97
2019-06-01T01:30:13.324Z,86.22
2019-06-01T01:32:40.054Z,86.19
2019-06-01T01:35:07.087Z,86.45
2019-06-01T01:37:33.542Z,86.53
2019-06-01T01:40:00.385Z,86.77
2019-06-01T01:42:26.873Z,86.74
2019-06-01T01:44:54.639Z,86.94
2019-06-01T01:47:22.497Z,86.95
2019-06-01T01:49:50.025Z,87.10
2019-06-01T01:52:16.586Z,86.92
2019-06-01T01:54:43.341Z,86.82
2019-06-01T01:57:10.915Z,86.62
2019-06-01T01:59:37.423Z,86.29
2019-06-01T02:02:04.115Z,85.87
2019-06-01T02:04:30.849Z,86.32
2019-06-01T02:06:58.481Z,86.48
2019-06-01T02:09:25.035Z,86.51
2019-06-01T02:11:51.537Z,86.58
2019-06-01T02:14:19.445Z,86.34
2019-06-01T02:16:45.933Z,86.25
2019-06-01T02:19:13.002Z,86.27
2019-06-01T02:21:39.553Z,86.43
2019-06-01T02:24:07.095Z,86.83
2019-06-01T02:26:33.597Z,86.90
2019-06-01T02:29:01.483Z,87.39
2019-06-01T02:31:41.090Z,87.62
2019-06-01T02:33:58.524Z,87.78
2019-06-01T02:36:25.320Z,87.70
2019-06-01T02:38:51.841Z,87.60
2019-06-01T02:41:18.322Z,87.43
2019-06-01T02:43:44.841Z,87.06
2019-06-01T02:46:11.350Z,87.06
2019-06-01T02:48:37.920Z,87.15
2019-06-01T02:51:05.514Z,87.12
2019-06-01T02:53:32.153Z,87.20
2019-06-01T02:55:59.882Z,87.25
2019-06-01T02:58:26.712Z,87.42
2019-06-01T03:01:34.380Z,87.48
2019-06-01T03:04:03.366Z,87.38
2019-06-01T03:06:31.043Z,87.71
2019-06-01T03:08:59.909Z,87.80
2019-06-01T03:11:36.843Z,88.08
2019-06-01T03:14:06.630Z,88.22
2019-06-01T03:16:39.954Z,88.13
2019-06-01T03:19:05.987Z,88.38
2019-06-01T03:21:35.994Z,88.56
2019-06-01T03:24:08.151Z,88.69
2019-06-01T03:26:40.788Z,88.68
2019-06-01T03:29:09.505Z,88.48
2019-06-01T03:31:36.195Z,88.28
2019-06-01T03:34:15.192Z,88.23
2019-06-01T03:36:42.268Z,88.23
2019-06-01T03:39:09.060Z,88.20
2019-06-01T03:41:35.600Z,87.94
2019-06-01T03:44:02.598Z,88.15
2019-06-01T03:46:31.326Z,88.13
2019-06-01T03:49:01.381Z,87.79
2019-06-01T03:51:28.110Z,87.50
2019-06-01T03:53:54.918Z,87.54
2019-06-01T03:56:21.632Z,87.50
2019-06-01T03:58:48.146Z,87.47
2019-06-01T04:01:15.231Z,87.10
2019-06-01T04:03:42.229Z,86.99
2019-06-01T04:06:09.423Z,87.42
2019-06-01T04:08:36.658Z,87.48
2019-06-01T04:11:03.631Z,87.72
2019-06-01T04:13:33.165Z,87.74
2019-06-01T04:16:01.888Z,87.81
2019-06-01T04:18:32.827Z,87.78
2019-06-01T04:20:59.705Z,87.64
2019-06-01T04:23:26.269Z,87.75
2019-06-01T04:25:52.977Z,87.76
2019-06-01T04:28:19.719Z,87.38
2019-06-01T04:30:46.523Z,86.96
2019-06-01T04:33:13.362Z,86.40
2019-06-01T04:35:41.939Z,85.88
2019-06-01T04:38:09.304Z,85.39
2019-06-01T04:40:36.933Z,84.80
2019-06-01T04:43:11.981Z,84.32
2019-06-01T04:45:39.358Z,83.61
2019-06-01T04:48:06.400Z,83.11
2019-06-01T04:50:32.952Z,82.46
2019-06-01T04:52:59.723Z,81.91
2019-06-01T04:55:26.387Z,81.34
2019-06-01T04:57:52.956Z,80.87
2019-06-01T05:00:27.558Z,79.74
2019-06-01T05:02:49.833Z,77.42
2019-06-01T05:05:17.198Z,76.53
2019-06-01T05:07:43.801Z,76.42
2019-06-01T05:10:11.629Z,76.43
2019-06-01T05:12:41.498Z,74.98
2019-06-01T05:15:15.961Z,73.65
2019-06-01T05:17:43.069Z,72.72
2019-06-01T05:20:14.712Z,71.14
2019-06-01T05:22:42.009Z,69.37
2019-06-01T05:25:09.115Z,69.32
2019-06-01T05:27:35.985Z,68.50
2019-06-01T05:30:03.665Z,67.32
2019-06-01T05:32:30.580Z,66.79
2019-06-01T05:34:57.435Z,65.73
2019-06-01T05:37:24.513Z,65.21
2019-06-01T05:39:51.736Z,65.34
2019-06-01T05:42:20.866Z,64.80
2019-06-01T05:44:47.417Z,63.62
2019-06-01T05:47:16.233Z,63.04
2019-06-01T05:49:43.049Z,61.47
2019-06-01T05:52:10.404Z,60.42
2019-06-01T05:54:37.316Z,61.30
2019-06-01T05:57:04.473Z,61.29
2019-06-01T05:59:31.767Z,61.19
2019-06-01T06:01:58.651Z,60.85
2019-06-01T06:04:25.449Z,61.17
2019-06-01T06:06:52.124Z,60.84
2019-06-01T06:09:19.098Z,62.75
2019-06-01T06:11:45.684Z,63.55
2019-06-01T06:14:13.354Z,64.47
2019-06-01T06:16:40.232Z,64.13
2019-06-01T06:19:07.384Z,64.21
2019-06-01T06:21:34.102Z,63.39
2019-06-01T06:24:00.856Z,63.37
2019-06-01T06:26:27.938Z,63.30
2019-06-01T06:28:54.474Z,62.26
2019-06-01T06:31:21.245Z,63.39
2019-06-01T06:33:56.575Z,62.52
2019-06-01T06:36:19.846Z,61.70
2019-06-01T06:38:48.714Z,62.80
2019-06-01T06:41:16.045Z,62.68
2019-06-01T06:43:43.568Z,63.84
2019-06-01T06:46:10.151Z,64.92
2019-06-01T06:48:36.644Z,65.16
2019-06-01T06:51:03.643Z,65.37
2019-06-01T06:53:35.113Z,66.30
2019-06-01T06:55:58.895Z,66.57
2019-06-01T06:58:26.491Z,66.96
2019-06-01T07:00:54.366Z,66.27
2019-06-01T07:03:25.282Z,65.30
2019-06-01T07:05:52.391Z,64.40
2019-06-01T07:08:21.737Z,61.54
2019-06-01T07:10:48.457Z,61.58
2019-06-01T07:13:15.022Z,63.10
2019-06-01T07:15:42.041Z,63.24
2019-06-01T07:18:09.117Z,64.12
2019-06-01T07:20:36.215Z,64.14
2019-06-01T07:23:11.351Z,62.25
2019-06-01T07:25:39.123Z,58.79
2019-06-01T07:28:05.800Z,55.48
2019-06-01T07:30:41.342Z,55.97
2019-06-01T07:33:06.738Z,54.16
2019-06-01T07:35:34.507Z,55.73
2019-06-01T07:38:01.099Z,54.85
2019-06-01T07:40:28.929Z,54.75
2019-06-01T07:42:55.414Z,53.85
2019-06-01T07:45:22.903Z,51.53
2019-06-01T07:47:50.336Z,50.63
2019-06-01T07:50:17.162Z,48.13
2019-06-01T07:52:43.995Z,45.83
2019-06-01T07:55:11.064Z,46.01
2019-06-01T07:57:37.648Z,45.46
2019-06-01T08:00:04.572Z,47.07
2019-06-01T08:02:38.266Z,47.66
2019-06-01T08:05:04.976Z,48.52
2019-06-01T08:07:32.052Z,47.08
2019-06-01T08:10:02.053Z,47.21
2019-06-01T08:12:29.682Z,47.68
2019-06-01T08:14:56.519Z,47.64
2019-06-01T08:17:24.087Z,47.75
2019-06-01T08:19:52.075Z,45.74
2019-06-01T08:22:18.850Z,44.51
2019-06-01T08:24:45.326Z,44.98
2019-06-01T08:27:13.003Z,43.83
2019-06-01T08:29:40.012Z,42.43
2019-06-01T08:32:11.313Z,43.62
2019-06-01T08:34:40.860Z,41.23
2019-06-01T08:37:07.639Z,43.51
2019-06-01T08:39:34.645Z,43.14
2019-06-01T08:42:01.219Z,41.57
2019-06-01T08:44:27.816Z,39.56
2019-06-01T08:46:54.286Z,40.30
2019-06-01T08:49:20.971Z,39.11
2019-06-01T08:51:47.478Z,38.97
2019-06-01T08:54:14.362Z,38.62
2019-06-01T08:56:41.471Z,40.01
2019-06-01T08:59:08.251Z,38.32
2019-06-01T09:01:35.101Z,37.37
2019-06-01T09:04:02.530Z,35.93
2019-06-01T09:06:35.426Z,36.15
2019-06-01T09:09:05.726Z,35.45
2019-06-01T09:11:35.322Z,34.52
2019-06-01T09:14:08.567Z,37.40
2019-06-01T09:16:38.919Z,36.67
2019-06-01T09:19:05.727Z,36.56
2019-06-01T09:21:33.548Z,35.17
2019-06-01T09:24:00.262Z,33.96
2019-06-01T09:26:27.748Z,34.85
2019-06-01T09:28:58.862Z,33.46
2019-06-01T09:31:28.241Z,34.12
2019-06-01T09:33:55.253Z,32.67
2019-06-01T09:36:22.347Z,34.46
2019-06-01T09:38:50.090Z,34.77
2019-06-01T09:41:17.897Z,33.19
2019-06-01T09:43:45.822Z,32.57
2019-06-01T09:46:12.886Z,32.90
2019-06-01T09:48:39.435Z,32.96
2019-06-01T09:51:10.992Z,32.58
2019-06-01T09:53:38.146Z,32.98
2019-06-01T09:56:05.240Z,33.66
2019-06-01T09:58:32.324Z,33.89
2019-06-01T10:00:59.273Z,33.52
2019-06-01T10:03:25.867Z,34.53
2019-06-01T10:06:02.169Z,35.09
2019-06-01T10:08:27.506Z,33.58
2019-06-01T10:13:25.279Z,34.59
2019-06-01T10:15:51.870Z,36.44
2019-06-01T10:18:18.441Z,32.05
2019-06-01T10:20:44.989Z,32.90
2019-06-01T10:23:11.824Z,32.27
2019-06-01T10:25:38.900Z,32.53
2019-06-01T10:28:05.749Z,31.53
2019-06-01T10:30:33.888Z,31.00
2019-06-01T10:33:00.581Z,32.03
2019-06-01T10:35:27.176Z,32.16
2019-06-01T10:37:55.832Z,31.21
2019-06-01T10:40:22.439Z,31.62
2019-06-01T10:42:50.379Z,31.20
2019-06-01T10:45:17.298Z,32.70
2019-06-01T10:47:46.031Z,33.44
2019-06-01T10:50:17.185Z,31.43
2019-06-01T10:52:44.449Z,31.31
2019-06-01T10:55:11.719Z,30.27
2019-06-01T10:57:40.658Z,29.26
2019-06-01T11:00:08.050Z,31.47
2019-06-01T11:02:34.842Z,31.62
2019-06-01T11:05:01.716Z,30.76
2019-06-01T11:07:28.347Z,31.38
2019-06-01T11:09:54.861Z,30.96
2019-06-01T11:12:21.642Z,30.49
2019-06-01T11:14:48.234Z,30.28
2019-06-01T11:17:14.770Z,29.42
2019-06-01T11:19:42.033Z,29.56
2019-06-01T11:22:08.770Z,29.31
2019-06-01T11:24:35.614Z,29.48
2019-06-01T11:27:04.511Z,29.41
2019-06-01T11:29:31.428Z,29.55
2019-06-01T11:31:58.358Z,29.69
2019-06-01T11:34:26.010Z,28.72
2019-06-01T11:37:04.493Z,28.84
2019-06-01T11:39:22.139Z,29.40
2019-06-01T11:41:50.659Z,29.67
2019-06-01T11:44:18.408Z,29.21
2019-06-01T11:46:45.255Z,29.14
2019-06-01T11:49:14.247Z,28.62
2019-06-01T11:51:45.308Z,28.54
2019-06-01T11:54:41.643Z,28.60
2019-06-01T11:57:12.668Z,28.46
2019-06-01T11:59:39.940Z,28.44
2019-06-01T12:02:07.127Z,29.86
2019-06-01T12:04:36.071Z,29.38
2019-06-01T12:07:16.837Z,29.47
2019-06-01T12:09:31.118Z,30.12
2019-06-01T12:11:58.187Z,28.84
2019-06-01T12:14:25.090Z,28.76
2019-06-01T12:16:51.727Z,28.32
2019-06-01T12:19:18.249Z,28.73
2019-06-01T12:21:45.387Z,30.81
2019-06-01T12:24:13.235Z,29.30
2019-06-01T12:26:43.409Z,28.56
2019-06-01T12:29:10.080Z,27.85
2019-06-01T12:31:37.665Z,28.52
2019-06-01T12:34:04.805Z,28.06
2019-06-01T12:36:34.716Z,27.93
2019-06-01T12:39:01.342Z,27.70
2019-06-01T12:41:27.874Z,28.18
2019-06-01T12:44:19.949Z,29.08
2019-06-01T12:46:56.047Z,28.45
2019-06-01T12:49:22.541Z,28.19
2019-06-01T12:51:49.274Z,29.16
2019-06-01T12:54:15.909Z,27.92
2019-06-01T12:56:43.027Z,28.23
2019-06-01T12:59:12.811Z,30.11
2019-06-01T13:01:43.211Z,28.72
2019-06-01T13:04:10.123Z,29.39
2019-06-01T13:06:37.127Z,29.25
2019-06-01T13:09:06.229Z,28.53
2019-06-01T13:11:32.910Z,29.30
2019-06-01T13:14:04.366Z,28.77
2019-06-01T13:16:30.741Z,28.68
2019-06-01T13:18:57.408Z,27.62
2019-06-01T13:21:45.417Z,28.22
2019-06-01T13:24:12.855Z,29.83
2019-06-01T13:26:39.472Z,29.36
2019-06-01T13:29:06.897Z,29.93
2019-06-01T13:31:33.484Z,30.51
2019-06-01T13:34:00.890Z,30.21
2019-06-01T13:36:27.968Z,30.03
2019-06-01T13:38:55.715Z,28.60
2019-06-01T13:41:23.902Z,29.70
2019-06-01T13:43:51.933Z,28.20
2019-06-01T13:46:19.570Z,30.05
2019-06-01T13:48:55.242Z,29.85
2019-06-01T13:51:24.665Z,29.94
2019-06-01T13:53:52.948Z,29.85
2019-06-01T13:56:19.596Z,29.95
2019-06-01T13:58:46.415Z,28.66
2019-06-01T14:01:13.442Z,28.46
2019-06-01T14:03:40.020Z,28.75
2019-06-01T14:06:06.748Z,30.84
2019-06-01T14:08:36.255Z,31.33
2019-06-01T14:11:02.882Z,31.69
2019-06-01T14:13:29.912Z,32.70
2019-06-01T14:15:56.771Z,31.98
2019-06-01T14:18:29.125Z,31.53
2019-06-01T14:20:56.912Z,32.00
2019-06-01T14:23:25.431Z,33.01
2019-06-01T14:25:52.274Z,32.58
2019-06-01T14:28:18.867Z,31.16
2019-06-01T14:30:46.473Z,29.89
2019-06-01T14:33:13.048Z,30.76
2019-06-01T14:35:40.160Z,31.41
2019-06-01T14:38:08.707Z,31.39
2019-06-01T14:40:35.955Z,31.52
2019-06-01T14:43:02.705Z,32.80
2019-06-01T14:45:29.560Z,30.78
2019-06-01T14:48:01.287Z,31.21
2019-06-01T14:50:29.945Z,31.68
2019-06-01T14:52:57.845Z,31.72
2019-06-01T14:55:24.850Z,31.34
2019-06-01T14:57:52.446Z,32.57
2019-06-01T15:00:19.566Z,32.85
2019-06-01T15:02:46.083Z,32.59
2019-06-01T15:05:13.231Z,33.74
2019-06-01T15:07:39.821Z,33.91
2019-06-01T15:10:06.865Z,34.02
2019-06-01T15:12:33.452Z,34.53
2019-06-01T15:15:01.887Z,34.71
2019-06-01T15:17:29.217Z,33.74
2019-06-01T15:19:56.351Z,34.91
2019-06-01T15:22:23.877Z,33.86
2019-06-01T15:24:59.451Z,34.50
2019-06-01T15:27:26.014Z,35.64
2019-06-01T15:29:52.792Z,34.46
2019-06-01T15:32:19.697Z,35.60
2019-06-01T15:34:46.195Z,35.18
2019-06-01T15:37:12.729Z,34.87
2019-06-01T15:39:39.237Z,35.32
2019-06-01T15:42:07.871Z,35.90
2019-06-01T15:44:37.417Z,34.89
2019-06-01T15:47:06.416Z,35.35
2019-06-01T15:49:33.296Z,35.33
2019-06-01T15:51:59.977Z,36.40
2019-06-01T15:54:26.609Z,36.37
2019-06-01T15:56:54.344Z,35.70
2019-06-01T15:59:21.217Z,35.18
2019-06-01T16:01:49.139Z,36.10
2019-06-01T16:04:22.936Z,36.72
2019-06-01T16:06:52.992Z,36.17
2019-06-01T16:09:19.653Z,35.81
2019-06-01T16:11:49.048Z,36.07
2019-06-01T16:14:15.590Z,36.57
2019-06-01T16:16:42.123Z,35.96
2019-06-01T16:19:11.317Z,35.91
2019-06-01T16:21:38.028Z,36.30
2019-06-01T16:24:04.707Z,37.18
2019-06-01T16:26:31.241Z,36.04
2019-06-01T16:29:00.491Z,36.58
2019-06-01T16:31:27.322Z,36.98
2019-06-01T16:33:54.513Z,36.48
2019-06-01T16:36:26.707Z,36.97
2019-06-01T16:38:59.529Z,37.72
2019-06-01T16:41:24.080Z,37.82
2019-06-01T16:43:50.793Z,37.57
2019-06-01T16:46:17.350Z,37.61
2019-06-01T16:48:44.043Z,37.48
2019-06-01T16:51:10.861Z,37.01
2019-06-01T16:53:37.566Z,37.13
2019-06-01T16:56:06.363Z,36.69
2019-06-01T16:58:33.076Z,38.98
2019-06-01T17:01:00.452Z,37.95
2019-06-01T17:03:28.264Z,38.07
2019-06-01T17:05:54.972Z,38.27
2019-06-01T17:08:21.695Z,38.96
2019-06-01T17:10:48.520Z,38.35
2019-06-01T17:13:15.670Z,39.23
2019-06-01T17:15:56.892Z,39.83
2019-06-01T17:18:24.640Z,40.72
2019-06-01T17:21:21.138Z,41.64
2019-06-01T17:23:59.462Z,40.83
2019-06-01T17:26:26.208Z,40.38
2019-06-01T17:29:06.838Z,39.38
2019-06-01T17:31:53.377Z,39.75
2019-06-01T17:34:06.549Z,40.18
2019-06-01T17:36:37.637Z,39.58
2019-06-01T17:39:09.069Z,39.33
2019-06-01T17:41:36.028Z,40.44
2019-06-01T17:44:02.723Z,40.41
2019-06-01T17:46:30.575Z,40.90
2019-06-01T17:48:57.307Z,41.56
2019-06-01T17:51:24.050Z,42.25
2019-06-01T17:53:53.230Z,42.45
2019-06-01T17:56:19.567Z,42.22
2019-06-01T17:58:46.178Z,42.96
2019-06-01T18:01:13.143Z,43.07
2019-06-01T18:03:39.823Z,44.11
2019-06-01T18:06:07.853Z,44.84
2019-06-01T18:08:34.579Z,44.97
2019-06-01T18:11:03.889Z,44.60
2019-06-01T18:13:33.563Z,44.65
2019-06-01T18:16:26.152Z,44.70
2019-06-01T18:18:53.139Z,44.66
2019-06-01T18:21:20.124Z,45.47
2019-06-01T18:23:49.298Z,45.99
2019-06-01T18:26:20.953Z,45.91
2019-06-01T18:28:47.690Z,46.11
2019-06-01T18:31:17.443Z,47.00
2019-06-01T18:33:45.013Z,53.42
2019-06-01T18:36:15.494Z,55.43
2019-06-01T18:38:51.268Z,56.08
2019-06-01T18:41:20.167Z,55.49
2019-06-01T18:43:53.082Z,56.00
2019-06-01T18:46:19.967Z,56.61
2019-06-01T18:48:47.736Z,56.89
2019-06-01T18:51:14.620Z,56.78
2019-06-01T18:53:41.400Z,57.90
2019-06-01T18:56:08.225Z,58.31
2019-06-01T18:58:35.216Z,57.97
2019-06-01T19:01:04.297Z,57.91
2019-06-01T19:03:30.946Z,57.96
2019-06-01T19:05:58.987Z,58.01
2019-06-01T19:08:25.616Z,58.66
2019-06-01T19:10:52.286Z,58.52
2019-06-01T19:13:47.592Z,59.40
2019-06-01T19:16:17.279Z,60.24
2019-06-01T19:18:44.936Z,59.45
2019-06-01T19:21:12.745Z,59.97
2019-06-01T19:23:39.604Z,59.93
2019-06-01T19:26:10.050Z,59.91
2019-06-01T19:28:35.974Z,61.05
2019-06-01T19:31:02.901Z,61.90
2019-06-01T19:33:30.743Z,62.11
2019-06-01T19:36:25.914Z,62.56
2019-06-01T19:38:58.617Z,62.96
2019-06-01T19:41:26.496Z,63.58
2019-06-01T19:43:54.284Z,64.11
2019-06-01T19:46:21.901Z,64.43
2019-06-01T19:48:48.391Z,64.02
2019-06-01T19:51:16.749Z,63.91
2019-06-01T19:53:43.329Z,64.55
2019-06-01T19:56:10.959Z,65.70
2019-06-01T19:58:38.498Z,65.74
2019-06-01T20:01:08.097Z,66.13
2019-06-01T20:03:35.613Z,66.54
2019-06-01T20:06:02.180Z,67.06
2019-06-01T20:08:28.805Z,66.24
2019-06-01T20:10:55.360Z,65.97
2019-06-01T20:13:23.141Z,66.02
2019-06-01T20:15:49.905Z,66.75
2019-06-01T20:18:17.276Z,66.87
2019-06-01T20:20:52.544Z,67.09
2019-06-01T20:23:19.508Z,66.96
2019-06-01T20:25:46.360Z,67.57
2019-06-01T20:28:13.629Z,67.69
2019-06-01T20:30:47.656Z,67.71
2019-06-01T20:33:20.474Z,67.68
2019-06-01T20:35:47.417Z,67.86
2019-06-01T20:38:14.430Z,67.91
2019-06-01T20:40:40.983Z,67.94
2019-06-01T20:43:07.555Z,67.77
2019-06-01T20:45:34.141Z,67.04
2019-06-01T20:48:02.909Z,66.99
2019-06-01T20:50:29.459Z,67.63
2019-06-01T20:52:56.944Z,68.63
2019-06-01T20:55:24.249Z,69.69
2019-06-01T20:57:50.726Z,70.52
2019-06-01T21:00:18.106Z,70.96
2019-06-01T21:02:44.719Z,71.33
2019-06-01T21:05:11.581Z,72.01
2019-06-01T21:07:38.194Z,72.36
2019-06-01T21:10:04.860Z,73.66
2019-06-01T21:12:44.679Z,73.66
2019-06-01T21:15:01.470Z,74.73
2019-06-01T21:17:28.157Z,74.73
2019-06-01T21:19:57.392Z,74.96
2019-06-01T21:22:24.905Z,75.14
2019-06-01T21:24:55.827Z,75.50
2019-06-01T21:27:22.733Z,75.68
2019-06-01T21:29:49.435Z,75.77
2019-06-01T21:32:17.304Z,76.19
2019-06-01T21:34:44.005Z,76.51
2019-06-01T21:37:10.622Z,76.81
2019-06-01T21:39:37.120Z,76.59
2019-06-01T21:42:03.805Z,76.73
2019-06-01T21:44:30.462Z,76.82
2019-06-01T21:46:57.043Z,76.70
2019-06-01T21:49:24.151Z,76.86
2019-06-01T21:51:53.126Z,76.65
2019-06-01T21:54:20.574Z,76.14
2019-06-01T21:56:48.221Z,75.41
2019-06-01T21:59:16.469Z,74.81
2019-06-01T22:01:44.078Z,74.41
2019-06-01T22:04:11.634Z,74.55
2019-06-01T22:06:38.442Z,74.92
2019-06-01T22:09:05.710Z,75.28
2019-06-01T22:11:35.177Z,75.92
2019-06-01T22:14:03.999Z,76.61
2019-06-01T22:16:31.712Z,76.00
2019-06-01T22:18:58.645Z,76.03
2019-06-01T22:21:25.887Z,76.03
2019-06-01T22:23:53.516Z,76.04
2019-06-01T22:26:20.128Z,75.95
2019-06-01T22:28:47.916Z,75.80
2019-06-01T22:31:14.385Z,75.34
2019-06-01T22:33:41.974Z,75.31
2019-06-01T22:36:08.517Z,75.91
2019-06-01T22:38:35.040Z,76.23
2019-06-01T22:41:02.735Z,76.60
2019-06-01T22:43:43.487Z,77.01
2019-06-01T22:45:57.629Z,77.87
2019-06-01T22:48:35.826Z,78.05
2019-06-01T22:51:02.579Z,78.52
2019-06-01T22:53:29.109Z,78.83
2019-06-01T22:55:55.835Z,78.85
2019-06-01T22:58:23.245Z,79.07
2019-06-01T23:00:49.903Z,78.79
2019-06-01T23:03:16.667Z,79.51
2019-06-01T23:05:43.878Z,80.27
2019-06-01T23:08:10.419Z,80.87
2019-06-01T23:10:37.189Z,81.62
2019-06-01T23:13:04.325Z,81.81
2019-06-01T23:15:31.971Z,81.66
2019-06-01T23:17:58.481Z,81.46
2019-06-01T23:20:25.884Z,81.66
2019-06-01T23:22:52.670Z,81.79
2019-06-01T23:25:19.361Z,81.83
2019-06-01T23:27:45.971Z,81.58
2019-06-01T23:30:12.797Z,81.75
2019-06-01T23:32:39.302Z,81.37
2019-06-01T23:35:06.008Z,81.15
2019-06-01T23:37:32.913Z,81.67
2019-06-01T23:39:59.453Z,81.87
2019-06-01T23:42:26.769Z,82.00
2019-06-01T23:44:53.418Z,82.20
2019-06-01T23:47:20.111Z,82.22
2019-06-01T23:49:46.628Z,82.12
2019-06-01T23:52:13.377Z,81.63
2019-06-01T23:54:39.912Z,81.88
2019-06-01T23:57:06.493Z,82.00
2019-06-01T23:59:35.392Z,81.95
